Time;durP1;ratioP1;P1;durP2;ratioP2;P2;SDS_P1;SDS_P2;PMS_P1;PMS_P2;Temp;Humidity;BMP_temperature;BMP_pressure;BME280_temperature;BME280_humidity;BME280_pressure;Samples;Min_cycle;Max_cycle;Signal;HPM_P1;HPM_P2
2022/01/22 00:00:46;;;;;;;;;6.75;6.75;;;;;8.12;55.31;103580.59;5062476;28;45220;-90
2022/01/22 00:03:12;;;;;;;;;10.25;6.75;;;;;8.13;55.41;103571.88;5058814;28;45450;-90
2022/01/22 00:05:37;;;;;;;;;7.00;7.00;;;;;8.11;54.82;103579.69;5057251;28;46414;-90
2022/01/22 00:08:03;;;;;;;;;7.25;7.00;;;;;8.02;54.81;103574.25;5060213;28;45212;-87
2022/01/22 00:10:29;;;;;;;;;8.00;7.00;;;;;7.98;55.10;103574.16;5061253;28;45310;-84
2022/01/22 00:15:28;;;;;;;;;8.25;6.75;;;;;7.99;55.81;103560.25;5061348;28;45981;-85
2022/01/22 00:17:54;;;;;;;;;13.50;8.00;;;;;8.03;55.22;103561.19;5061285;28;45762;-86
2022/01/22 00:20:22;;;;;;;;;8.50;7.00;;;;;8.04;55.65;103557.72;5047061;28;45230;-86
2022/01/22 00:22:48;;;;;;;;;9.00;5.25;;;;;8.06;55.81;103561.25;5061556;28;47277;-85
2022/01/22 00:25:15;;;;;;;;;10.25;8.00;;;;;8.06;55.36;103566.50;5059734;28;47788;-86
2022/01/22 00:27:44;;;;;;;;;9.25;8.50;;;;;8.05;55.94;103556.00;5061419;28;45304;-85
2022/01/22 00:30:12;;;;;;;;;7.75;7.25;;;;;8.06;55.85;103565.59;5061997;28;45282;-87
2022/01/22 00:32:38;;;;;;;;;9.00;9.00;;;;;8.08;54.94;103558.66;5061531;28;45350;-87
2022/01/22 00:35:05;;;;;;;;;12.25;8.00;;;;;8.08;55.64;103564.78;5061280;28;45546;-86
2022/01/22 00:37:31;;;;;;;;;9.50;4.00;;;;;8.07;55.85;103556.91;5060579;28;45675;-86
2022/01/22 00:39:56;;;;;;;;;9.25;8.00;;;;;8.08;55.42;103554.31;5059063;28;45473;-85
2022/01/22 00:42:23;;;;;;;;;8.00;6.75;;;;;8.08;55.49;103542.94;5060828;28;45192;-85
2022/01/22 00:44:51;;;;;;;;;6.00;6.00;;;;;8.10;55.69;103556.97;5060948;28;46287;-84
2022/01/22 00:47:17;;;;;;;;;5.50;5.50;;;;;8.10;56.02;103557.84;5060298;28;46003;-85
2022/01/22 00:49:42;;;;;;;;;8.75;5.75;;;;;8.12;55.68;103546.53;5049529;28;45371;-84
2022/01/22 00:52:08;;;;;;;;;8.00;5.00;;;;;8.11;55.20;103548.25;5061518;28;45440;-88
2022/01/22 00:54:33;;;;;;;;;7.50;6.75;;;;;8.12;55.54;103555.28;5057935;28;48091;-87
2022/01/22 00:56:58;;;;;;;;;7.75;6.25;;;;;8.13;55.95;103556.16;5058064;28;45346;-88
2022/01/22 00:59:24;;;;;;;;;7.75;5.75;;;;;8.13;55.65;103553.53;5060269;28;45696;-88
2022/01/22 01:01:49;;;;;;;;;8.50;6.25;;;;;8.15;55.48;103551.84;5059250;28;46299;-88
2022/01/22 01:04:15;;;;;;;;;11.50;7.75;;;;;8.16;55.63;103549.25;5060375;28;46280;-87
2022/01/22 01:06:40;;;;;;;;;5.50;5.50;;;;;8.16;55.30;103551.88;5060298;28;45169;-87
2022/01/22 01:09:08;;;;;;;;;6.50;6.00;;;;;8.17;55.65;103543.16;5061731;28;45367;-88
2022/01/22 01:11:38;;;;;;;;;7.25;6.50;;;;;8.20;56.04;103547.56;5060354;28;45173;-88
2022/01/22 01:14:07;;;;;;;;;9.75;6.00;;;;;8.22;55.77;103543.28;5059640;28;48011;-85
2022/01/22 01:32:57;;;;;;;;;7.25;6.50;;;;;8.23;55.33;103534.56;5060032;28;45362;-87
2022/01/22 01:35:23;;;;;;;;;7.50;7.00;;;;;8.22;55.65;103535.41;5071123;28;47222;-88
2022/01/22 01:37:51;;;;;;;;;8.00;8.00;;;;;8.21;55.35;103542.38;5052168;28;45372;-88
2022/01/22 01:40:20;;;;;;;;;11.50;8.50;;;;;8.17;55.71;103537.06;5058589;28;45298;-91
2022/01/22 01:43:05;;;;;;;;;7.50;6.00;;;;;8.14;55.62;103539.59;5055986;28;45514;-91
2022/01/22 01:45:31;;;;;;;;;11.25;8.00;;;;;8.14;55.82;103543.09;5054522;28;45481;-91
2022/01/22 01:48:00;;;;;;;;;8.75;7.00;;;;;8.10;55.88;103531.66;5060511;28;45517;-93
2022/01/22 01:50:26;;;;;;;;;6.00;6.00;;;;;8.10;56.01;103534.28;5059691;28;45242;-93
2022/01/22 01:53:08;;;;;;;;;13.50;9.25;;;;;8.10;55.83;103529.03;5059264;28;47210;-91
2022/01/22 01:56:05;;;;;;;;;6.25;5.00;;;;;8.15;55.72;103538.75;5058576;28;47194;-92
2022/01/22 01:58:31;;;;;;;;;8.50;7.75;;;;;8.13;56.31;103541.31;5058544;28;45334;-92
2022/01/22 02:01:00;;;;;;;;;10.00;8.75;;;;;8.14;56.03;103532.63;5058318;28;45482;-92
2022/01/22 02:03:26;;;;;;;;;10.50;9.50;;;;;8.18;56.75;103539.69;5059051;28;45450;-92
2022/01/22 02:05:51;;;;;;;;;7.75;6.00;;;;;8.14;55.95;103534.34;5060322;28;45381;-83
2022/01/22 02:08:18;;;;;;;;;5.25;5.25;;;;;8.15;55.96;103539.63;5055839;28;45389;-84
2022/01/22 02:10:53;;;;;;;;;8.50;7.50;;;;;8.15;55.68;103536.13;5045582;28;45282;-87
2022/01/22 02:24:18;;;;;;;;;8.50;7.25;;;;;8.27;56.21;103527.66;5047182;28;45434;-89
2022/01/22 02:26:48;;;;;;;;;9.25;8.75;;;;;8.29;55.77;103532.09;5054012;28;47257;-89
2022/01/22 02:29:14;;;;;;;;;5.00;5.00;;;;;8.30;55.89;103525.97;5053918;28;45466;-88
2022/01/22 02:31:44;;;;;;;;;10.00;8.75;;;;;8.31;56.14;103527.75;5060057;28;45345;-88
2022/01/22 02:36:41;;;;;;;;;9.00;8.50;;;;;8.38;55.87;103525.25;5059316;28;45311;-90
2022/01/22 02:39:33;;;;;;;;;8.50;8.50;;;;;8.40;55.40;103523.53;5058732;28;45962;-91
2022/01/22 02:41:58;;;;;;;;;12.00;8.75;;;;;8.42;55.61;103519.25;5058924;28;45383;-87
2022/01/22 02:44:35;;;;;;;;;8.00;7.25;;;;;8.39;55.47;103521.78;5059703;28;45256;-89
2022/01/22 02:47:03;;;;;;;;;11.75;10.25;;;;;8.42;55.92;103521.88;5059039;28;45391;-89
2022/01/22 02:49:29;;;;;;;;;12.50;9.25;;;;;8.43;55.53;103518.38;5058635;28;45971;-89
2022/01/22 02:52:03;;;;;;;;;9.00;8.25;;;;;8.43;55.75;103515.75;5059924;28;45315;-89
2022/01/22 02:54:29;;;;;;;;;9.00;7.50;;;;;8.46;55.78;103518.44;5052530;28;45386;-91
2022/01/22 02:56:54;;;;;;;;;11.00;8.50;;;;;8.46;55.67;103513.19;5055340;28;46977;-91
2022/01/22 02:59:22;;;;;;;;;14.25;10.50;;;;;8.45;55.34;103514.03;5058849;28;45370;-91
2022/01/22 03:01:49;;;;;;;;;8.75;8.75;;;;;8.40;55.27;103515.69;5059614;28;45350;-91
2022/01/22 03:04:14;;;;;;;;;10.50;8.00;;;;;8.38;55.55;103514.75;5056648;28;46230;-91
2022/01/22 03:06:39;;;;;;;;;12.00;9.25;;;;;8.35;55.23;103517.31;5046348;28;47091;-91
2022/01/22 03:09:09;;;;;;;;;10.00;9.00;;;;;8.29;55.02;103515.47;5050154;28;45572;-88
2022/01/22 03:11:43;;;;;;;;;9.50;7.75;;;;;8.26;55.96;103510.16;5055880;28;46025;-87
2022/01/22 03:19:17;;;;;;;;;8.25;6.25;;;;;8.22;55.56;103502.22;5058343;28;45821;-87
2022/01/22 03:21:57;;;;;;;;;8.25;6.75;;;;;8.23;55.38;103505.72;5062197;28;45437;-87
2022/01/22 03:27:22;;;;;;;;;6.25;6.25;;;;;8.23;55.94;103516.22;5066044;28;45765;-86
2022/01/22 03:29:50;;;;;;;;;10.50;9.75;;;;;8.20;56.35;103510.88;5064571;28;45742;-88
2022/01/22 03:32:17;;;;;;;;;8.75;8.50;;;;;8.21;56.33;103515.28;5065258;28;45230;-88
2022/01/22 03:34:54;;;;;;;;;8.00;7.00;;;;;8.21;56.24;103513.56;5066151;28;45208;-87
2022/01/22 03:37:19;;;;;;;;;9.50;7.00;;;;;8.19;55.62;103515.28;5066040;28;45401;-90
2022/01/22 03:39:45;;;;;;;;;11.50;11.00;;;;;8.21;55.83;103521.44;5064413;28;45281;-85
2022/01/22 03:42:10;;;;;;;;;9.00;7.00;;;;;8.19;56.17;103519.63;5064417;28;46916;-91
2022/01/22 03:44:35;;;;;;;;;12.00;9.75;;;;;8.17;55.69;103524.81;5064417;28;45433;-90
2022/01/22 03:47:01;;;;;;;;;10.25;8.75;;;;;8.17;55.71;103527.44;5064192;28;45354;-89
2022/01/22 03:49:27;;;;;;;;;8.50;8.25;;;;;8.17;56.03;103530.03;5065373;28;45437;-89
2022/01/22 03:51:52;;;;;;;;;8.50;8.25;;;;;8.15;55.78;103533.50;5064935;28;45549;-92
2022/01/22 03:54:17;;;;;;;;;9.25;8.00;;;;;8.13;56.48;103524.69;5064820;28;47288;-89
2022/01/22 03:56:46;;;;;;;;;13.25;10.25;;;;;8.14;56.08;103519.53;5065328;28;45398;-92
2022/01/22 03:59:12;;;;;;;;;12.50;10.00;;;;;8.16;55.72;103522.16;5064822;28;45240;-93
2022/01/22 04:04:08;;;;;;;;;16.00;11.75;;;;;8.16;55.94;103517.81;5065966;28;45417;-92
2022/01/22 04:09:07;;;;;;;;;11.25;9.25;;;;;8.19;55.98;103515.28;5065902;28;45395;-92
2022/01/22 04:11:37;;;;;;;;;9.75;8.00;;;;;8.19;56.34;103515.28;5063430;28;45504;-91
2022/01/22 04:14:04;;;;;;;;;13.50;11.50;;;;;8.19;56.27;103512.66;5062379;28;45193;-91
2022/01/22 04:16:31;;;;;;;;;10.00;10.00;;;;;8.19;55.97;103515.28;5063571;28;47855;-93
2022/01/22 04:25:07;;;;;;;;;12.50;10.25;;;;;8.17;56.33;103505.59;5065394;28;45244;-90
2022/01/22 04:27:15;;;;;;;;;13.25;11.00;;;;;8.16;56.37;103503.81;5053503;28;45587;-91
2022/01/22 04:29:41;;;;;;;;;14.50;10.00;;;;;8.18;56.52;103502.13;5065406;28;45160;-91
2022/01/22 04:32:07;;;;;;;;;15.50;12.50;;;;;8.18;56.71;103504.75;5061506;28;45220;-91
2022/01/22 04:34:33;;;;;;;;;14.75;14.25;;;;;8.19;56.71;103509.13;5062110;28;45709;-92
2022/01/22 04:36:59;;;;;;;;;16.00;13.00;;;;;8.16;56.62;103498.59;5059949;28;46993;-92
2022/01/22 04:39:26;;;;;;;;;13.75;13.75;;;;;8.20;56.94;103503.03;5061764;28;45297;-88
2022/01/22 04:41:54;;;;;;;;;14.50;14.00;;;;;8.19;56.45;103510.03;5057230;28;46098;-93
2022/01/22 04:44:20;;;;;;;;;19.00;14.50;;;;;8.21;56.55;103502.19;5059346;28;46063;-93
2022/01/22 04:47:31;;;;;;;;;17.50;16.00;;;;;8.21;56.34;103504.81;5058653;28;47137;-88
2022/01/22 04:52:43;;;;;;;;;20.75;16.75;;;;;8.19;56.42;103509.13;5061342;28;45449;-92
2022/01/22 04:55:09;;;;;;;;;15.50;15.50;;;;;8.17;57.01;103510.84;5060382;28;47153;-91
2022/01/22 04:57:43;;;;;;;;;19.50;16.50;;;;;8.18;57.04;103512.59;5057497;28;45431;-90
2022/01/22 05:00:14;;;;;;;;;24.50;20.25;;;;;8.17;56.82;103518.72;5067357;28;45833;-90
2022/01/22 05:02:39;;;;;;;;;16.75;15.75;;;;;8.14;56.49;103514.28;5059973;28;45855;-83
2022/01/22 05:05:06;;;;;;;;;19.00;18.00;;;;;8.08;56.38;103507.16;5059531;28;45319;-83
2022/01/22 05:07:32;;;;;;;;;19.00;18.00;;;;;8.12;56.31;103521.22;5053791;28;45452;-88
2022/01/22 05:09:57;;;;;;;;;22.00;21.00;;;;;8.09;56.80;103519.41;5061423;27;45359;-89
2022/01/22 05:12:22;;;;;;;;;19.75;18.75;;;;;8.05;56.70;103516.69;5053715;28;45294;-88
2022/01/22 05:14:48;;;;;;;;;26.25;21.75;;;;;8.02;56.37;103514.91;5061608;28;45347;-90
2022/01/22 05:17:13;;;;;;;;;27.75;23.50;;;;;8.00;56.67;103513.94;5059105;28;46197;-91
2022/01/22 05:20:07;;;;;;;;;24.75;22.25;;;;;8.02;56.96;103517.50;5061426;28;45505;-83
2022/01/22 05:22:41;;;;;;;;;25.00;19.50;;;;;7.99;56.52;103512.19;5060090;28;45441;-83
2022/01/22 05:25:12;;;;;;;;;30.00;27.75;;;;;7.96;56.63;103512.13;5061237;28;45458;-84
2022/01/22 05:30:49;;;;;;;;;28.25;23.00;;;;;7.98;56.67;103519.16;5059830;28;45841;-87
2022/01/22 05:38:22;;;;;;;;;32.25;24.25;;;;;7.99;56.75;103523.56;5060639;28;45401;-90
2022/01/22 05:40:48;;;;;;;;;29.25;25.75;;;;;8.01;56.88;103523.59;5060763;28;45434;-90
2022/01/22 05:43:13;;;;;;;;;23.00;21.75;;;;;8.01;56.42;103526.22;5052681;28;46038;-90
2022/01/22 05:45:39;;;;;;;;;25.50;23.75;;;;;7.95;56.46;103520.84;5059016;28;45484;-89
2022/01/22 05:48:05;;;;;;;;;28.00;25.75;;;;;7.91;56.67;103514.63;5060527;28;45402;-91
2022/01/22 05:53:04;;;;;;;;;27.00;24.50;;;;;7.88;56.92;103531.16;5060112;28;45319;-87
2022/01/22 06:00:48;;;;;;;;;31.50;26.75;;;;;7.95;57.05;103534.81;5055221;28;45461;-89
2022/01/22 06:03:13;;;;;;;;;29.75;26.25;;;;;7.96;56.80;103536.59;5059812;28;45421;-90
2022/01/22 06:05:39;;;;;;;;;30.25;27.25;;;;;7.93;56.59;103539.13;5059100;28;46998;-90
2022/01/22 06:08:04;;;;;;;;;27.75;24.50;;;;;7.92;56.59;103547.84;5059382;28;45421;-89
2022/01/22 06:10:32;;;;;;;;;23.25;16.25;;;;;7.86;56.85;103551.19;5059083;28;45345;-88
2022/01/22 06:15:35;;;;;;;;;29.00;26.50;;;;;7.81;56.64;103549.31;5059304;28;45544;-88
2022/01/22 06:18:00;;;;;;;;;33.75;25.75;;;;;7.79;56.95;103548.38;5059346;28;46408;-88
2022/01/22 06:20:26;;;;;;;;;29.50;24.75;;;;;7.82;56.83;103551.09;5059465;28;45604;-89
2022/01/22 06:22:51;;;;;;;;;28.25;23.75;;;;;7.83;56.71;103540.63;5058319;28;45479;-86
2022/01/22 06:25:16;;;;;;;;;33.00;28.50;;;;;7.76;57.29;103547.47;5059954;28;45543;-88
2022/01/22 06:27:42;;;;;;;;;29.00;27.00;;;;;7.76;57.24;103537.00;5058655;28;46259;-87
2022/01/22 06:30:08;;;;;;;;;35.75;31.00;;;;;7.77;57.00;103540.50;5058929;28;45368;-87
2022/01/22 06:32:33;;;;;;;;;34.00;28.50;;;;;7.75;57.08;103540.44;5060227;28;45366;-87
2022/01/22 06:34:59;;;;;;;;;33.00;24.75;;;;;7.79;57.46;103541.41;5059006;28;45292;-87
2022/01/22 06:37:24;;;;;;;;;25.25;22.00;;;;;7.78;57.22;103534.41;5059407;28;45507;-88
2022/01/22 06:42:30;;;;;;;;;33.50;26.75;;;;;7.78;57.55;103534.41;5058519;28;45247;-89
2022/01/22 06:44:57;;;;;;;;;28.00;23.50;;;;;7.83;57.69;103538.00;5057460;28;46117;-88
2022/01/22 06:47:22;;;;;;;;;39.00;29.50;;;;;7.84;57.38;103537.19;5058232;28;47394;-88
2022/01/22 06:49:48;;;;;;;;;37.00;28.75;;;;;7.87;57.60;103539.88;5058487;28;45323;-88
2022/01/22 06:52:13;;;;;;;;;35.50;30.75;;;;;7.90;57.93;103540.81;5054572;28;45523;-90
2022/01/22 06:54:39;;;;;;;;;29.75;27.50;;;;;7.90;57.01;103540.81;5056749;28;45255;-88
2022/01/22 06:57:05;;;;;;;;;25.00;24.00;;;;;7.92;57.31;103554.81;5057992;28;46050;-87
2022/01/22 06:59:30;;;;;;;;;27.50;22.75;;;;;7.91;57.20;103553.91;5059606;28;45317;-90
2022/01/22 07:01:56;;;;;;;;;34.75;29.75;;;;;7.88;56.94;103557.34;5057376;28;45528;-88
2022/01/22 07:04:22;;;;;;;;;33.00;28.75;;;;;7.90;57.07;103552.16;5059622;28;45271;-88
2022/01/22 07:06:47;;;;;;;;;32.75;27.75;;;;;7.94;57.55;103558.34;5058635;28;46278;-87
2022/01/22 07:09:13;;;;;;;;;36.25;25.50;;;;;7.95;57.15;103563.59;5058177;28;45430;-83
2022/01/22 07:11:38;;;;;;;;;33.50;29.50;;;;;8.01;57.68;103551.50;5056935;28;45437;-86
2022/01/22 07:14:03;;;;;;;;;36.50;32.75;;;;;8.03;57.01;103555.94;5058124;28;45914;-86
2022/01/22 07:16:29;;;;;;;;;37.75;30.25;;;;;8.04;57.49;103552.47;5058091;28;45294;-85
2022/01/22 07:19:00;;;;;;;;;35.00;31.25;;;;;8.09;57.20;103549.97;5058022;28;45205;-85
2022/01/22 07:21:28;;;;;;;;;33.00;29.00;;;;;8.10;57.06;103551.72;5058817;28;45390;-82
2022/01/22 07:26:19;;;;;;;;;35.25;30.50;;;;;8.13;57.23;103554.41;5055095;28;45256;-89
2022/01/22 07:28:44;;;;;;;;;37.00;27.50;;;;;8.15;57.62;103551.84;5059327;28;45382;-83
2022/01/22 07:31:10;;;;;;;;;34.25;30.50;;;;;8.17;57.36;103552.78;5058483;28;46188;-83
2022/01/22 07:33:36;;;;;;;;;36.25;31.25;;;;;8.20;57.25;103553.72;5059359;28;45512;-85
2022/01/22 07:36:04;;;;;;;;;34.25;31.00;;;;;8.24;57.45;103556.41;5055252;28;45463;-86
2022/01/22 07:38:29;;;;;;;;;41.25;30.25;;;;;8.25;57.20;103558.19;5059408;28;45243;-86
2022/01/22 07:40:55;;;;;;;;;39.25;34.00;;;;;8.27;57.44;103562.59;5058656;28;45400;-84
2022/01/22 07:43:20;;;;;;;;;38.50;28.00;;;;;8.29;57.31;103566.16;5056016;28;45486;-84
2022/01/22 07:45:46;;;;;;;;;34.25;27.50;;;;;8.28;57.17;103553.88;5056173;28;45266;-83
2022/01/22 07:48:12;;;;;;;;;31.25;27.25;;;;;8.33;57.34;103565.34;5058575;28;45169;-84
2022/01/22 07:50:37;;;;;;;;;22.00;17.75;;;;;8.33;57.39;103567.09;5059162;28;45770;-83
2022/01/22 07:53:03;;;;;;;;;33.00;32.25;;;;;8.34;57.64;103574.09;5059280;28;45271;-82
2022/01/22 07:55:29;;;;;;;;;39.00;31.50;;;;;8.32;57.69;103566.19;5056049;28;45538;-80
2022/01/22 07:57:55;;;;;;;;;33.75;28.25;;;;;8.33;57.47;103577.56;5058375;28;45881;-80
2022/01/22 08:00:20;;;;;;;;;25.75;25.25;;;;;8.35;57.53;103578.47;5058931;28;45248;-80
2022/01/22 08:02:46;;;;;;;;;33.50;29.25;;;;;8.36;57.04;103582.00;5055856;28;45414;-80
2022/01/22 08:05:12;;;;;;;;;30.75;25.25;;;;;8.33;57.35;103581.09;5049029;28;45365;-80
2022/01/22 08:07:39;;;;;;;;;38.75;30.75;;;;;8.35;57.66;103580.22;5054355;28;45473;-81
2022/01/22 08:10:08;;;;;;;;;42.75;34.25;;;;;8.29;57.36;103578.34;5054475;28;45460;-81
2022/01/22 08:12:35;;;;;;;;;35.25;30.75;;;;;8.27;57.20;103590.53;5057125;28;45594;-80
2022/01/22 08:15:01;;;;;;;;;31.50;28.75;;;;;8.31;57.50;103592.38;5049388;28;45393;-81
2022/01/22 08:17:26;;;;;;;;;37.50;31.75;;;;;8.31;57.67;103597.63;5053434;28;45490;-80
2022/01/22 08:19:53;;;;;;;;;37.75;30.25;;;;;8.32;57.56;103591.53;5059013;28;46474;-80
2022/01/22 08:22:19;;;;;;;;;34.75;31.00;;;;;8.34;57.19;103592.47;5055895;27;45430;-80
2022/01/22 08:24:44;;;;;;;;;31.75;29.25;;;;;8.31;57.36;103590.66;5054614;28;45436;-80
2022/01/22 08:27:18;;;;;;;;;40.25;30.25;;;;;8.33;57.93;103588.06;5058435;28;45776;-80
2022/01/22 08:29:44;;;;;;;;;37.00;32.50;;;;;8.37;58.03;103586.41;5054223;28;45766;-80
2022/01/22 08:37:38;;;;;;;;;40.25;34.25;;;;;8.36;57.68;103597.72;5054469;28;45839;-80
2022/01/22 08:40:04;;;;;;;;;40.50;33.00;;;;;8.36;57.76;103605.59;5062024;28;45517;-80
2022/01/22 08:42:30;;;;;;;;;31.75;25.50;;;;;8.38;57.60;103606.50;5061876;28;45590;-80
2022/01/22 08:44:55;;;;;;;;;43.25;35.00;;;;;8.37;57.82;103603.00;5048589;28;46755;-79
2022/01/22 08:47:21;;;;;;;;;41.25;34.25;;;;;8.42;57.60;103608.38;5060576;28;45527;-79
2022/01/22 08:49:47;;;;;;;;;38.50;34.25;;;;;8.46;58.01;103606.69;5061788;28;45222;-79
2022/01/22 08:52:14;;;;;;;;;40.75;32.75;;;;;8.45;58.16;103613.66;5061757;28;45394;-79
2022/01/22 08:54:41;;;;;;;;;42.25;33.00;;;;;8.47;57.96;103619.81;5060335;28;45486;-79
2022/01/22 08:57:07;;;;;;;;;46.75;37.50;;;;;8.49;57.72;103620.75;5069584;27;46002;-79
2022/01/22 08:59:32;;;;;;;;;46.50;37.25;;;;;8.49;57.65;103618.13;5059408;28;45345;-79
2022/01/22 09:01:59;;;;;;;;;46.25;36.25;;;;;8.54;58.23;103623.47;5060946;28;45322;-79
2022/01/22 09:04:24;;;;;;;;;43.75;34.00;;;;;8.52;58.25;103620.78;5060989;28;45331;-79
2022/01/22 09:06:50;;;;;;;;;39.75;33.50;;;;;8.52;57.87;103627.81;5061450;28;45446;-79
2022/01/22 09:09:15;;;;;;;;;41.50;34.25;;;;;8.52;57.62;103627.81;5060369;28;45425;-79
2022/01/22 09:11:44;;;;;;;;;40.25;34.25;;;;;8.53;57.02;103626.94;5060012;28;45466;-79
2022/01/22 09:14:12;;;;;;;;;40.25;33.25;;;;;8.54;57.50;103629.56;5063396;28;45358;-79
2022/01/22 09:16:38;;;;;;;;;48.50;35.00;;;;;8.57;57.08;103627.91;5047796;28;45374;-79
2022/01/22 09:19:07;;;;;;;;;42.75;34.25;;;;;8.58;57.60;103629.66;5061035;28;45479;-79
2022/01/22 09:21:34;;;;;;;;;42.25;34.25;;;;;8.59;57.06;103635.00;5061085;28;45458;-79
2022/01/22 09:23:59;;;;;;;;;44.75;35.25;;;;;8.58;57.28;103640.16;5071001;28;45342;-79
2022/01/22 09:26:25;;;;;;;;;42.50;34.25;;;;;8.58;57.33;103638.44;5062613;27;45259;-79
2022/01/22 09:28:51;;;;;;;;;37.00;34.75;;;;;8.60;57.56;103638.47;5061330;28;45330;-79
2022/01/22 09:31:17;;;;;;;;;39.50;34.00;;;;;8.62;56.92;103639.38;5060431;28;45495;-79
2022/01/22 09:33:44;;;;;;;;;40.25;33.75;;;;;8.60;56.72;103644.59;5060974;28;45427;-79
2022/01/22 09:36:09;;;;;;;;;40.00;34.25;;;;;8.62;57.04;103644.63;5061104;28;45852;-79
2022/01/22 09:38:35;;;;;;;;;43.50;35.50;;;;;8.60;56.92;103648.97;5060842;28;45299;-79
2022/01/22 09:41:00;;;;;;;;;41.25;34.00;;;;;8.58;57.16;103642.75;5060633;28;45555;-79
2022/01/22 09:43:26;;;;;;;;;43.50;35.00;;;;;8.60;56.76;103651.56;5059900;28;46030;-79
2022/01/22 09:45:51;;;;;;;;;30.25;26.25;;;;;8.61;56.88;103640.25;5060519;28;45996;-79
2022/01/22 09:48:17;;;;;;;;;40.00;35.25;;;;;8.61;57.07;103642.88;5060940;28;45176;-79
2022/01/22 09:50:42;;;;;;;;;44.25;35.25;;;;;8.61;57.10;103646.38;5060479;28;45547;-79
2022/01/22 09:53:08;;;;;;;;;41.75;35.75;;;;;8.61;56.95;103642.88;5060476;28;45540;-79
2022/01/22 09:55:33;;;;;;;;;42.75;33.50;;;;;8.61;56.38;103642.88;5058000;28;45256;-79
2022/01/22 09:57:59;;;;;;;;;38.00;33.75;;;;;8.62;56.93;103645.53;5058308;28;45183;-78
2022/01/22 10:00:26;;;;;;;;;46.50;35.75;;;;;8.61;56.87;103637.63;5060457;28;45261;-78
2022/01/22 10:02:54;;;;;;;;;47.75;37.25;;;;;8.65;56.91;103644.69;5059956;28;46297;-78
2022/01/22 10:05:35;;;;;;;;;45.25;35.75;;;;;8.68;57.01;103644.78;5060193;28;45822;-78
2022/01/22 10:08:21;;;;;;;;;42.00;35.75;;;;;8.73;57.11;103650.13;5061536;28;45532;-85
2022/01/22 10:10:48;;;;;;;;;43.75;35.75;;;;;8.74;56.92;103655.38;5067513;27;45587;-84
2022/01/22 10:13:14;;;;;;;;;38.00;31.50;;;;;8.73;56.77;103652.75;5076790;28;45487;-78
2022/01/22 10:15:40;;;;;;;;;32.25;28.75;;;;;8.70;56.48;103648.31;5053039;28;45313;-78
2022/01/22 10:18:07;;;;;;;;;34.50;30.00;;;;;8.75;56.96;103661.53;5059949;28;45482;-78
2022/01/22 10:20:40;;;;;;;;;42.00;33.50;;;;;8.73;56.92;103661.50;5059187;28;45395;-78
2022/01/22 10:23:16;;;;;;;;;35.75;31.50;;;;;8.74;56.97;103658.00;5058575;28;46275;-77
2022/01/22 10:25:47;;;;;;;;;48.25;36.50;;;;;8.74;56.43;103655.38;5055346;28;45739;-78
2022/01/22 10:28:21;;;;;;;;;37.50;33.50;;;;;8.75;56.87;103662.41;5060086;28;45391;-79
2022/01/22 10:30:50;;;;;;;;;40.75;31.75;;;;;8.74;56.81;103662.41;5059172;28;45411;-78
2022/01/22 10:33:30;;;;;;;;;36.75;32.75;;;;;8.70;56.57;103666.69;5060190;28;45358;-78
2022/01/22 10:36:19;;;;;;;;;37.50;31.00;;;;;8.71;56.84;103680.69;5060085;28;45435;-78
2022/01/22 10:38:52;;;;;;;;;39.75;33.00;;;;;8.72;56.34;103685.06;5058941;28;45245;-78
2022/01/22 10:41:35;;;;;;;;;36.25;31.25;;;;;8.71;56.05;103670.19;5059951;28;45354;-78
2022/01/22 10:44:02;;;;;;;;;35.00;28.50;;;;;8.69;56.04;103672.78;5059701;28;45769;-78
2022/01/22 10:49:16;;;;;;;;;39.00;30.50;;;;;8.66;56.31;103670.97;5060064;28;45420;-78
2022/01/22 10:51:50;;;;;;;;;40.25;31.50;;;;;8.70;56.34;103677.16;5059999;28;45285;-78
2022/01/22 10:54:20;;;;;;;;;36.25;30.50;;;;;8.66;56.50;103663.13;5060062;28;45383;-78
2022/01/22 10:56:47;;;;;;;;;37.50;32.00;;;;;8.68;56.41;103660.50;5060003;28;45413;-78
2022/01/22 10:59:17;;;;;;;;;39.00;34.00;;;;;8.71;56.34;103651.84;5060116;28;45353;-78
2022/01/22 11:01:59;;;;;;;;;35.25;31.75;;;;;8.73;56.71;103650.13;5059270;28;45582;-78
2022/01/22 11:04:29;;;;;;;;;30.50;26.00;;;;;8.83;56.69;103664.31;5058874;28;45537;-78
2022/01/22 11:06:56;;;;;;;;;29.25;28.00;;;;;8.83;55.97;103656.47;5059791;28;45818;-78
2022/01/22 11:09:23;;;;;;;;;30.75;23.25;;;;;8.87;55.97;103655.66;5059718;28;45470;-78
2022/01/22 11:11:50;;;;;;;;;32.00;29.25;;;;;8.89;55.76;103649.59;5059638;28;45688;-78
2022/01/22 11:14:16;;;;;;;;;37.50;30.25;;;;;8.92;56.12;103654.03;5059573;28;46230;-78
2022/01/22 11:16:45;;;;;;;;;41.50;30.00;;;;;8.92;56.25;103648.78;5059474;28;45746;-78
2022/01/22 11:19:14;;;;;;;;;32.75;27.75;;;;;8.94;55.38;103651.44;5059708;28;45215;-78
2022/01/22 11:21:44;;;;;;;;;37.50;31.50;;;;;8.94;55.73;103657.56;5059410;28;45540;-78
2022/01/22 11:24:15;;;;;;;;;33.25;30.25;;;;;8.93;55.62;103645.31;5059300;28;45392;-78
2022/01/22 11:26:45;;;;;;;;;31.00;26.00;;;;;8.96;56.15;103641.88;5059525;28;45489;-78
2022/01/22 11:29:12;;;;;;;;;34.75;29.75;;;;;9.00;56.17;103647.22;5059406;28;45268;-78
2022/01/22 11:31:40;;;;;;;;;34.75;28.00;;;;;8.98;55.37;103645.41;5059003;28;45505;-78
2022/01/22 11:34:06;;;;;;;;;33.25;30.00;;;;;8.98;55.19;103638.44;5058851;28;45458;-77
2022/01/22 11:36:43;;;;;;;;;35.25;31.25;;;;;9.03;55.37;103646.38;5059119;28;45705;-78
2022/01/22 11:39:19;;;;;;;;;40.25;33.25;;;;;9.05;55.36;103638.53;5059430;28;45228;-78
2022/01/22 11:41:57;;;;;;;;;32.50;30.25;;;;;9.02;55.32;103634.09;5060476;28;45177;-76
2022/01/22 11:44:36;;;;;;;;;39.00;32.75;;;;;9.05;55.74;103635.91;5058383;28;45354;-76
2022/01/22 11:47:15;;;;;;;;;36.75;31.75;;;;;9.11;55.76;103633.44;5062665;28;45248;-76
2022/01/22 11:50:00;;;;;;;;;38.00;32.00;;;;;9.10;55.03;103626.41;5063151;28;45210;-76
2022/01/22 11:52:29;;;;;;;;;34.25;32.50;;;;;9.12;55.14;103640.44;5062485;28;45437;-76
2022/01/22 11:55:00;;;;;;;;;31.25;29.50;;;;;9.16;55.66;103630.91;5062735;28;45511;-76
2022/01/22 11:57:28;;;;;;;;;37.50;32.50;;;;;9.17;55.85;103622.16;5062653;28;45217;-76
2022/01/22 12:00:21;;;;;;;;;37.75;33.50;;;;;9.22;55.83;103624.03;5062522;28;45398;-76
2022/01/22 12:03:08;;;;;;;;;35.25;32.00;;;;;9.23;55.08;103622.28;5061491;28;45363;-76
2022/01/22 12:05:54;;;;;;;;;40.00;33.00;;;;;9.20;55.21;103622.22;5060684;28;45454;-76
2022/01/22 12:08:24;;;;;;;;;38.75;33.50;;;;;9.19;55.34;103630.94;5062212;28;45430;-76
2022/01/22 12:14:28;;;;;;;;;37.50;33.00;;;;;9.22;55.63;103624.03;5061179;28;45220;-76
2022/01/22 12:16:44;;;;;;;;;39.25;32.25;;;;;9.32;55.18;103617.22;5061936;28;45705;-76
2022/01/22 12:22:39;;;;;;;;;42.50;33.50;;;;;9.36;55.21;103618.13;5061716;28;45269;-76
2022/01/22 12:25:14;;;;;;;;;36.25;31.00;;;;;9.38;54.79;103611.19;5060571;28;46118;-76
2022/01/22 12:27:47;;;;;;;;;38.75;33.00;;;;;9.36;54.88;103604.16;5061760;28;45218;-76
2022/01/22 12:30:15;;;;;;;;;30.50;27.50;;;;;9.39;55.20;103605.06;5061454;28;45243;-76
2022/01/22 12:32:49;;;;;;;;;31.00;28.50;;;;;9.43;55.40;103603.41;5062287;28;45219;-76
2022/01/22 12:35:18;;;;;;;;;33.75;30.75;;;;;9.47;54.42;103606.94;5061141;28;45410;-76
2022/01/22 12:37:49;;;;;;;;;47.25;36.25;;;;;9.47;54.70;103593.81;5062191;28;46147;-76
2022/01/22 12:40:27;;;;;;;;;38.25;34.00;;;;;9.50;54.99;103597.41;5061682;28;45289;-76
2022/01/22 12:43:07;;;;;;;;;39.25;33.50;;;;;9.54;54.05;103593.06;5048748;28;45383;-76
2022/01/22 12:45:35;;;;;;;;;37.00;32.50;;;;;9.57;54.91;103590.50;5049740;28;45410;-76
2022/01/22 12:48:02;;;;;;;;;42.25;35.00;;;;;9.56;54.85;103583.47;5060028;28;47223;-76
2022/01/22 12:50:31;;;;;;;;;43.75;31.75;;;;;9.56;54.11;103586.09;5060812;28;45802;-76
2022/01/22 12:53:03;;;;;;;;;31.75;30.50;;;;;9.56;54.37;103572.97;5059738;28;45435;-76
2022/01/22 12:58:27;;;;;;;;;37.25;31.00;;;;;9.63;54.53;103573.97;5003846;28;46036;-76
2022/01/22 13:01:07;;;;;;;;;44.00;35.25;;;;;9.61;54.27;103570.41;5058028;28;45162;-76
2022/01/22 13:03:34;;;;;;;;;36.75;32.50;;;;;9.62;54.37;103565.22;5061109;28;45513;-76